Time;durP1;ratioP1;P1;durP2;ratioP2;P2;SDS_P1;SDS_P2;PMS_P1;PMS_P2;Temp;Humidity;BMP_temperature;BMP_pressure;BME280_temperature;BME280_humidity;BME280_pressure;Samples;Min_cycle;Max_cycle;Signal;HPM_P1;HPM_P2
2022/05/16 00:00:57;;;;;;;11.57;6.20;;;;;;;14.37;nan;100777.59;4992928;28;20030;-73
2022/05/16 00:03:24;;;;;;;10.63;6.82;;;;;;;14.34;nan;100776.25;4980880;28;20031;-74
2022/05/16 00:05:51;;;;;;;11.38;6.43;;;;;;;14.38;nan;100777.34;4991900;28;20034;-72
2022/05/16 00:08:16;;;;;;;9.23;6.30;;;;;;;14.23;nan;100766.50;4992780;28;20034;-74
2022/05/16 00:10:42;;;;;;;14.38;6.68;;;;;;;14.21;nan;100774.69;4983628;28;20374;-73
2022/05/16 00:13:07;;;;;;;10.07;6.57;;;;;;;14.19;nan;100778.63;5002461;28;20179;-72
2022/05/16 00:15:34;;;;;;;16.17;7.55;;;;;;;14.23;nan;100782.41;4974694;28;20031;-71
2022/05/16 00:18:00;;;;;;;15.43;6.93;;;;;;;14.17;nan;100773.53;4991667;28;20037;-72
2022/05/16 00:20:26;;;;;;;18.67;6.93;;;;;;;14.17;nan;100784.13;4989308;28;20434;-72
2022/05/16 00:22:51;;;;;;;13.43;7.32;;;;;;;14.11;nan;100774.53;4993004;28;20038;-72
2022/05/16 00:25:17;;;;;;;20.40;7.70;;;;;;;14.13;nan;100777.72;4992078;28;20101;-74
2022/05/16 00:27:43;;;;;;;12.82;7.35;;;;;;;14.11;nan;100779.81;4991538;28;20072;-73
2022/05/16 00:30:12;;;;;;;12.02;6.93;;;;;;;14.03;nan;100770.41;4981981;28;20042;-72
2022/05/16 00:32:37;;;;;;;10.70;6.57;;;;;;;14.07;nan;100778.69;4998595;28;20057;-73
2022/05/16 00:35:05;;;;;;;14.38;6.40;;;;;;;14.07;nan;100776.03;4983517;28;20385;-73
2022/05/16 00:37:30;;;;;;;14.50;9.50;;;;;;;14.15;nan;100769.53;4990824;28;20548;-73
2022/05/16 00:39:56;;;;;;;12.38;7.80;;;;;;;14.19;nan;100771.47;4996170;28;20053;-73
2022/05/16 00:42:21;;;;;;;13.57;7.20;;;;;;;14.17;nan;100773.53;4991844;28;20038;-73
2022/05/16 00:44:47;;;;;;;13.25;7.32;;;;;;;14.08;nan;100768.88;4990612;28;20388;-74
2022/05/16 00:47:12;;;;;;;19.75;6.90;;;;;;;14.10;nan;100774.75;4990896;28;20404;-73
2022/05/16 00:49:42;;;;;;;12.38;7.03;;;;;;;14.09;nan;100781.91;4990577;28;20045;-73
2022/05/16 00:52:29;;;;;;;13.18;7.30;;;;;;;14.02;nan;100768.78;4974606;28;20097;-73
2022/05/16 00:54:58;;;;;;;10.10;6.53;;;;;;;14.02;nan;100768.78;4970505;28;20039;-73
2022/05/16 00:57:27;;;;;;;;;;;;;;;14.00;nan;100764.78;4990825;28;20034;-73
2022/05/16 01:00:17;;;;;;;14.87;6.43;;;;;;;13.98;nan;100773.00;4988271;28;19914;-73
2022/05/16 01:05:31;;;;;;;10.38;6.93;;;;;;;13.90;nan;100770.72;4987567;28;20484;-73
2022/05/16 01:08:01;;;;;;;9.50;6.65;;;;;;;13.92;nan;100779.22;4991878;28;20034;-72
2022/05/16 01:10:27;;;;;;;10.38;6.88;;;;;;;13.93;nan;100782.66;5002054;28;20034;-73
2022/05/16 01:12:54;;;;;;;10.20;6.95;;;;;;;13.80;nan;100767.88;4999407;28;20046;-72
2022/05/16 01:15:39;;;;;;;19.52;8.10;;;;;;;13.83;nan;100775.34;4991653;28;20121;-72
2022/05/16 01:18:07;;;;;;;12.07;7.03;;;;;;;13.71;nan;100778.03;4987816;28;20512;-73
2022/05/16 01:20:53;;;;;;;9.98;6.70;;;;;;;13.67;nan;100776.91;4990451;28;20042;-72
2022/05/16 01:23:22;;;;;;;12.90;7.13;;;;;;;13.48;nan;100771.00;4935192;28;20042;-72
2022/05/16 01:25:50;;;;;;;10.88;7.10;;;;;;;13.43;nan;100783.31;4963151;28;20047;-73
2022/05/16 01:28:18;;;;;;;12.52;7.30;;;;;;;13.39;nan;100783.78;4972507;28;20093;-72
2022/05/16 01:30:48;;;;;;;9.83;7.20;;;;;;;13.30;nan;100771.16;4987415;28;20133;-72
2022/05/16 01:33:14;;;;;;;10.15;7.13;;;;;;;13.20;nan;100764.59;4990557;28;20042;-72
2022/05/16 01:35:40;;;;;;;14.25;8.07;;;;;;;13.15;nan;100768.97;4994392;28;20031;-73
2022/05/16 01:38:26;;;;;;;14.10;7.10;;;;;;;13.10;nan;100774.16;4973534;28;20037;-72
2022/05/16 01:40:56;;;;;;;11.90;7.05;;;;;;;13.07;nan;100787.81;4986278;28;20183;-73
2022/05/16 01:43:34;;;;;;;10.95;7.30;;;;;;;13.04;nan;100777.72;4990511;28;20502;-73
2022/05/16 01:46:06;;;;;;;13.32;7.50;;;;;;;12.90;nan;100756.78;5007044;28;20011;-72
2022/05/16 01:48:32;;;;;;;15.57;7.93;;;;;;;12.94;nan;100775.66;4991493;28;20512;-72
2022/05/16 01:51:03;;;;;;;10.90;7.50;;;;;;;12.87;nan;100759.09;5008206;28;20045;-72
2022/05/16 01:53:29;;;;;;;15.07;8.32;;;;;;;12.84;nan;100772.78;4973497;28;20060;-73
2022/05/16 01:55:55;;;;;;;12.65;6.97;;;;;;;12.82;nan;100778.31;4998242;28;20039;-72
2022/05/16 01:58:22;;;;;;;13.15;7.88;;;;;;;12.76;nan;100780.03;5014558;28;20034;-72
2022/05/16 02:00:47;;;;;;;15.60;7.30;;;;;;;12.71;nan;100776.44;5010352;28;20035;-73
2022/05/16 02:03:13;;;;;;;10.57;7.60;;;;;;;12.56;nan;100759.22;5013348;28;20152;-73
2022/05/16 02:05:42;;;;;;;11.63;7.13;;;;;;;12.71;nan;100777.28;5017921;28;20039;-73
2022/05/16 02:08:08;;;;;;;15.57;8.30;;;;;;;12.69;nan;100783.81;4996860;28;20098;-73
2022/05/16 02:10:34;;;;;;;12.35;7.53;;;;;;;12.68;nan;100782.19;5004224;28;20042;-73
2022/05/16 02:13:03;;;;;;;14.85;7.68;;;;;;;12.62;nan;100777.81;5001805;28;20038;-73
2022/05/16 02:15:31;;;;;;;9.45;7.10;;;;;;;12.64;nan;100787.16;5001450;28;20604;-73
2022/05/16 02:17:57;;;;;;;10.95;7.07;;;;;;;12.63;nan;100779.44;5004666;28;20034;-73
2022/05/16 02:20:22;;;;;;;9.60;6.88;;;;;;;;;;5011883;28;20145;-75
2022/05/16 02:25:33;;;;;;;13.55;7.93;;;;;;;;;;4996588;28;20057;-72
2022/05/16 02:27:58;;;;;;;14.02;7.53;;;;;;;;;;5001993;28;20042;-72
2022/05/16 02:30:23;;;;;;;11.87;7.30;;;;;;;;;;4999884;28;20042;-73
2022/05/16 02:32:49;;;;;;;12.95;7.25;;;;;;;;;;4995619;28;20839;-73
2022/05/16 02:35:15;;;;;;;13.98;7.28;;;;;;;;;;5006850;28;20045;-73
2022/05/16 02:37:46;;;;;;;10.77;7.07;;;;;;;;;;4980208;28;20077;-70
2022/05/16 02:40:11;;;;;;;14.10;7.40;;;;;;;;;;5006645;28;20104;-73
2022/05/16 02:42:36;;;;;;;11.63;7.18;;;;;;;;;;5005065;28;20565;-73
2022/05/16 02:45:03;;;;;;;16.17;7.50;;;;;;;;;;4995797;28;20464;-73
2022/05/16 02:47:28;;;;;;;11.85;7.57;;;;;;;;;;4994297;28;20069;-72
2022/05/16 02:49:53;;;;;;;13.13;7.20;;;;;;;;;;4995520;28;20061;-73
2022/05/16 02:52:18;;;;;;;12.53;7.50;;;;;;;;;;5002043;28;20294;-73
2022/05/16 02:54:44;;;;;;;9.10;6.90;;;;;;;;;;4994373;28;20066;-72
2022/05/16 02:57:11;;;;;;;11.02;7.35;;;;;;;;;;4996989;28;20117;-73
2022/05/16 02:59:37;;;;;;;13.18;7.28;;;;;;;;;;5000555;28;20050;-73
2022/05/16 03:02:03;;;;;;;9.60;6.95;;;;;;;;;;5010270;28;20457;-72
2022/05/16 03:04:29;;;;;;;16.65;7.28;;;;;;;;;;4994876;28;20038;-72
2022/05/16 03:06:54;;;;;;;13.13;7.00;;;;;;;;;;4980611;28;20139;-73
2022/05/16 03:09:21;;;;;;;14.05;7.10;;;;;;;;;;4999667;28;20129;-73
2022/05/16 03:11:46;;;;;;;12.35;7.00;;;;;;;;;;4989607;28;20045;-73
2022/05/16 03:14:12;;;;;;;12.30;6.90;;;;;;;;;;4975823;28;20038;-73
2022/05/16 03:16:38;;;;;;;12.27;6.97;;;;;;;;;;4984623;28;20460;-72
2022/05/16 03:19:03;;;;;;;14.07;7.15;;;;;;;;;;4982123;28;20042;-73
2022/05/16 03:21:29;;;;;;;11.70;6.70;;;;;;;;;;4987248;28;20061;-73
2022/05/16 03:23:55;;;;;;;16.58;7.43;;;;;;;;;;4990724;28;20042;-73
2022/05/16 03:26:20;;;;;;;9.80;7.00;;;;;;;;;;4992158;28;20096;-73
2022/05/16 03:28:45;;;;;;;12.23;6.78;;;;;;;;;;5000904;28;20970;-73
2022/05/16 03:31:11;;;;;;;15.60;6.47;;;;;;;;;;4998053;28;20038;-72
2022/05/16 03:33:36;;;;;;;9.48;6.72;;;;;;;;;;5013253;28;20255;-73
2022/05/16 03:36:01;;;;;;;11.45;6.95;;;;;;;;;;4996916;28;20034;-73
2022/05/16 03:41:11;;;;;;;19.15;6.97;;;;;;;;;;4989543;28;20030;-73
2022/05/16 03:43:38;;;;;;;14.65;7.20;;;;;;;;;;4993236;28;20042;-73
2022/05/16 03:46:04;;;;;;;10.77;6.80;;;;;;;;;;4984397;28;20455;-73
2022/05/16 03:48:29;;;;;;;14.88;6.97;;;;;;;;;;4985822;28;20033;-74
2022/05/16 03:50:54;;;;;;;16.23;7.55;;;;;;;;;;5001751;28;20049;-73
2022/05/16 03:53:19;;;;;;;13.37;7.10;;;;;;;;;;4975239;28;20061;-72
2022/05/16 03:55:45;;;;;;;12.60;7.00;;;;;;;;;;5002573;28;20315;-73
2022/05/16 03:58:10;;;;;;;18.10;7.27;;;;;;;11.90;nan;100760.25;4976125;28;20642;-74
2022/05/16 04:00:35;;;;;;;19.95;7.80;;;;;;;;;;4993688;28;20319;-74
2022/05/16 04:03:01;;;;;;;15.93;7.30;;;;;;;;;;5005428;28;20373;-73
2022/05/16 04:05:26;;;;;;;13.43;6.87;;;;;;;;;;5010751;28;20065;-70
2022/05/16 04:07:52;;;;;;;12.82;6.97;;;;;;;;;;4993428;28;20283;-73
2022/05/16 04:10:17;;;;;;;16.42;7.55;;;;;;;;;;4995400;28;20532;-72
2022/05/16 04:12:42;;;;;;;14.55;6.75;;;;;;;;;;5000934;28;20504;-72
2022/05/16 04:15:08;;;;;;;15.70;6.47;;;;;;;;;;4992882;28;20034;-72
2022/05/16 04:17:33;;;;;;;11.50;7.25;;;;;;;;;;4997068;28;20370;-72
2022/05/16 04:19:59;;;;;;;12.50;6.72;;;;;;;;;;4985516;28;20471;-73
2022/05/16 04:22:24;;;;;;;16.92;7.20;;;;;;;;;;4993103;28;20042;-73
2022/05/16 04:24:50;;;;;;;13.00;7.22;;;;;;;;;;4990421;28;20046;-73
2022/05/16 04:27:15;;;;;;;20.13;6.53;;;;;;;;;;4974042;28;20077;-73
2022/05/16 04:29:40;;;;;;;10.45;6.80;;;;;;;;;;4996688;28;20072;-73
2022/05/16 04:32:06;;;;;;;13.27;6.93;;;;;;;;;;4994317;28;20062;-73
2022/05/16 04:34:31;;;;;;;10.93;6.93;;;;;;;;;;4971353;28;20122;-73
2022/05/16 04:36:56;;;;;;;13.35;7.05;;;;;;;;;;4984101;28;20041;-73
2022/05/16 04:39:22;;;;;;;22.23;7.77;;;;;;;;;;4992105;28;20074;-75
2022/05/16 04:44:36;;;;;;;11.45;7.05;;;;;;;;;;4991977;28;20380;-73
2022/05/16 04:47:02;;;;;;;17.02;7.63;;;;;;;;;;4992382;28;20084;-73
2022/05/16 04:49:27;;;;;;;21.00;7.03;;;;;;;;;;5002688;28;20523;-74
2022/05/16 04:51:52;;;;;;;18.83;7.37;;;;;;;;;;4993229;28;20038;-74
2022/05/16 04:54:17;;;;;;;22.37;7.43;;;;;;;;;;4992330;28;20817;-74
2022/05/16 04:56:43;;;;;;;17.90;7.27;;;;;;;;;;4999268;28;20411;-75
2022/05/16 04:59:09;;;;;;;17.20;7.88;;;;;;;;;;4990988;28;20337;-74
2022/05/16 05:01:34;;;;;;;21.48;8.57;;;;;;;;;;4990104;28;20165;-73
2022/05/16 05:03:59;;;;;;;18.50;7.57;;;;;;;;;;4990863;28;20595;-75
2022/05/16 05:06:25;;;;;;;17.77;8.13;;;;;;;;;;4990172;28;20272;-73
2022/05/16 05:08:50;;;;;;;14.93;7.13;;;;;;;;;;4990749;28;21157;-73
2022/05/16 05:16:43;;;;;;;20.40;7.93;;;;;;;;;;4992128;28;20042;-73
2022/05/16 05:19:08;;;;;;;17.40;7.60;;;;;;;;;;4991078;28;20035;-72
2022/05/16 05:21:33;;;;;;;19.48;7.80;;;;;;;;;;4974556;28;20516;-73
2022/05/16 05:23:59;;;;;;;21.83;7.40;;;;;;;;;;4975673;28;20105;-72
2022/05/16 05:26:24;;;;;;;15.77;7.72;;;;;;;;;;4981741;28;20519;-74
2022/05/16 05:28:49;;;;;;;23.08;7.85;;;;;;;;;;4992336;28;20121;-73
2022/05/16 05:31:16;;;;;;;12.95;7.85;;;;;;;;;;4998036;28;20096;-74
2022/05/16 05:33:42;;;;;;;21.85;8.13;;;;;;;;;;4998635;28;20076;-75
2022/05/16 05:36:08;;;;;;;15.25;7.78;;;;;;;;;;4991266;28;20035;-75
2022/05/16 05:38:36;;;;;;;20.02;8.40;;;;;;;;;;4973763;28;20038;-73
2022/05/16 05:41:01;;;;;;;14.32;7.53;;;;;;;;;;4992075;28;20023;-74
2022/05/16 05:43:27;;;;;;;15.40;7.60;;;;;;;;;;4989103;28;20034;-73
2022/05/16 05:45:52;;;;;;;10.93;6.90;;;;;;;;;;4993231;28;20034;-73
2022/05/16 05:48:17;;;;;;;13.07;7.73;;;;;;;;;;4973143;28;20053;-73
2022/05/16 05:50:42;;;;;;;20.03;7.87;;;;;;;;;;4990241;28;20749;-75
2022/05/16 05:53:08;;;;;;;13.13;7.65;;;;;;;;;;4983385;28;20288;-68
2022/05/16 05:55:33;;;;;;;10.07;7.10;;;;;;;;;;4992151;28;20045;-69
2022/05/16 05:57:58;;;;;;;13.57;7.53;;;;;;;;;;4976014;28;20960;-75
2022/05/16 06:00:24;;;;;;;21.15;7.45;;;;;;;;;;4990295;28;20030;-75
2022/05/16 06:02:49;;;;;;;15.18;7.20;;;;;;;;;;4993197;28;20040;-75
2022/05/16 06:05:16;;;;;;;8.80;6.60;;;;;;;;;;4994678;28;20634;-75
2022/05/16 06:07:41;;;;;;;9.90;6.70;;;;;;;;;;4976143;28;20031;-73
2022/05/16 06:10:07;;;;;;;14.73;6.97;;;;;;;;;;4994413;28;20092;-74
2022/05/16 06:12:33;;;;;;;10.27;6.90;;;;;;;;;;4974662;28;20718;-74
2022/05/16 06:14:58;;;;;;;16.03;7.23;;;;;;;;;;4989921;28;20053;-75
2022/05/16 06:17:23;;;;;;;11.53;6.73;;;;;;;;;;4990936;28;20314;-75
2022/05/16 06:19:49;;;;;;;14.15;7.18;;;;;;;;;;4977246;28;20268;-68
2022/05/16 06:22:14;;;;;;;10.57;6.82;;;;;;;;;;4995017;28;20031;-69
2022/05/16 06:27:23;;;;;;;15.55;7.32;;;;;;;;;;4985713;28;20047;-69
2022/05/16 06:29:49;;;;;;;12.00;7.13;;;;;;;;;;4986133;28;20046;-68
2022/05/16 06:32:15;;;;;;;14.70;6.95;;;;;;;;;;4972508;28;20046;-69
2022/05/16 06:34:40;;;;;;;11.68;6.63;;;;;;;;;;4975409;28;20531;-69
2022/05/16 06:37:05;;;;;;;14.43;6.43;;;;;;;;;;4985313;28;20038;-74
2022/05/16 06:39:30;;;;;;;16.45;5.78;;;;;;;;;;4991659;28;20045;-73
2022/05/16 06:41:56;;;;;;;13.67;5.70;;;;;;;;;;4974338;28;20035;-69
2022/05/16 06:44:21;;;;;;;14.00;6.07;;;;;;;17.31;nan;100834.38;4976440;28;20041;-69
2022/05/16 06:46:48;;;;;;;15.23;6.60;;;;;;;;;;4978697;28;20303;-69
2022/05/16 06:49:13;;;;;;;14.30;6.25;;;;;;;;;;4979616;28;20073;-69
2022/05/16 06:51:38;;;;;;;21.25;6.63;;;;;;;;;;4977045;28;21665;-69
2022/05/16 06:54:05;;;;;;;10.57;5.75;;;;;;;;;;4982395;28;20041;-75
2022/05/16 06:56:30;;;;;;;8.95;5.57;;;;;;;;;;4986455;28;20565;-74
2022/05/16 06:58:56;;;;;;;18.38;6.15;;;;;;;;;;4976521;28;20135;-75
2022/05/16 07:01:21;;;;;;;28.65;7.22;;;;;;;;;;4984607;28;20491;-75
2022/05/16 07:03:46;;;;;;;10.33;6.47;;;;;;;18.06;nan;100873.03;4982515;28;20045;-75
2022/05/16 07:06:14;;;;;;;12.93;6.72;;;;;;;18.13;nan;100862.13;4983414;28;20041;-76
2022/05/16 07:08:40;;;;;;;9.77;5.95;;;;;;;;;;4980416;28;20125;-75
2022/05/16 07:11:05;;;;;;;9.68;5.93;;;;;;;;;;4990671;28;20118;-75
2022/05/16 07:13:30;;;;;;;15.33;5.90;;;;;;;;;;4985773;28;20061;-74
2022/05/16 07:15:56;;;;;;;9.82;5.88;;;;;;;;;;4988524;28;20776;-76
2022/05/16 07:18:22;;;;;;;9.70;5.17;;;;;;;;;;4976030;28;20035;-75
2022/05/16 07:20:48;;;;;;;14.18;4.80;;;;;;;18.86;nan;100826.44;4992650;28;20284;-76
2022/05/16 07:23:13;;;;;;;12.43;5.20;;;;;;;;;;4977945;28;20041;-74
2022/05/16 07:28:23;;;;;;;11.10;4.95;;;;;;;;;;4982438;28;20758;-74
2022/05/16 07:30:49;;;;;;;6.78;4.75;;;;;;;19.29;nan;100824.97;4976878;28;20046;-74
2022/05/16 07:33:14;;;;;;;10.75;4.28;;;;;;;19.38;nan;100792.38;4977655;28;21476;-74
2022/05/16 07:35:40;;;;;;;10.32;4.80;;;;;;;19.51;nan;100811.28;4989306;28;20041;-74
2022/05/16 07:38:05;;;;;;;14.27;4.50;;;;;;;19.59;nan;100804.56;5002983;28;20061;-73
2022/05/16 07:40:34;;;;;;;9.38;4.57;;;;;;;19.74;nan;100835.78;4992526;28;20113;-75
2022/05/16 07:43:01;;;;;;;17.17;5.18;;;;;;;19.80;nan;100887.31;5013894;28;20034;-75
2022/05/16 07:45:26;;;;;;;10.27;4.40;;;;;;;;;;5001298;28;20011;-74
2022/05/16 07:47:52;;;;;;;12.23;4.45;;;;;;;;;;4995858;28;20038;-75
2022/05/16 07:50:19;;;;;;;20.52;4.38;;;;;;;20.14;nan;100829.38;5011909;28;20122;-69
2022/05/16 07:52:47;;;;;;;9.95;4.30;;;;;;;20.33;nan;100826.03;5001039;28;20125;-75
2022/05/16 07:55:20;;;;;;;16.73;4.80;;;;;;;20.42;nan;100835.03;4991204;28;20043;-75
2022/05/16 07:57:45;;;;;;;8.98;4.07;;;;;;;20.51;nan;100833.38;5012939;28;20050;-75
2022/05/16 08:00:12;;;;;;;9.93;4.50;;;;;;;20.57;nan;100826.16;5013650;28;20010;-69
2022/05/16 08:02:39;;;;;;;15.35;4.45;;;;;;;;;;5011510;28;20038;-75
2022/05/16 08:05:08;;;;;;;10.52;4.63;;;;;;;20.67;nan;100820.69;5009510;28;20117;-76
2022/05/16 08:07:33;;;;;;;14.35;4.10;;;;;;;20.86;nan;100834.16;5003533;28;20031;-75
2022/05/16 08:12:43;;;;;;;16.65;4.63;;;;;;;21.11;nan;100833.09;5009523;28;20042;-74
2022/05/16 08:15:09;;;;;;;21.50;5.28;;;;;;;21.23;nan;100832.69;5010045;28;20037;-75
2022/05/16 08:17:35;;;;;;;10.98;4.65;;;;;;;21.32;nan;100836.34;5008839;28;20030;-75
2022/05/16 08:20:01;;;;;;;12.40;3.78;;;;;;;;;;5009714;28;20064;-75
2022/05/16 08:22:31;;;;;;;8.52;3.65;;;;;;;21.60;nan;100839.25;5010105;28;20492;-75
2022/05/16 08:24:57;;;;;;;4.13;3.22;;;;;;;;;;5007099;28;20400;-75
2022/05/16 08:27:23;;;;;;;6.00;3.38;;;;;;;21.78;nan;100843.81;4990499;28;20046;-74
2022/05/16 08:29:49;;;;;;;6.78;3.67;;;;;;;21.90;nan;100840.69;4998399;28;20403;-75
2022/05/16 08:32:19;;;;;;;10.32;3.65;;;;;;;21.92;nan;100776.06;5006236;28;20042;-74
2022/05/16 08:34:44;;;;;;;10.10;3.92;;;;;;;21.92;nan;100829.69;4984001;28;20039;-75
2022/05/16 08:40:01;;;;;;;7.80;3.60;;;;;;;22.19;nan;100775.38;4996844;28;20046;-76
2022/05/16 08:42:48;;;;;;;8.70;3.63;;;;;;;22.31;nan;100853.53;4968448;28;20378;-76
2022/05/16 08:45:28;;;;;;;7.60;3.67;;;;;;;22.41;nan;100823.88;4975452;28;20100;-75
2022/05/16 08:48:00;;;;;;;6.97;4.20;;;;;;;22.54;nan;100833.03;4986057;28;20049;-75
2022/05/16 08:50:41;;;;;;;10.15;3.47;;;;;;;22.65;nan;100845.19;4976021;28;20030;-69
2022/05/16 08:53:18;;;;;;;14.30;4.15;;;;;;;22.78;nan;100843.63;4992773;28;20121;-75
2022/05/16 08:55:51;;;;;;;9.23;3.25;;;;;;;22.80;nan;100768.94;4996565;28;20096;-74
2022/05/16 08:58:26;;;;;;;6.07;3.63;;;;;;;23.01;nan;100910.91;4991939;28;20030;-75
2022/05/16 09:00:56;;;;;;;7.15;3.30;;;;;;;23.08;nan;100846.84;4991696;28;20041;-74
2022/05/16 09:03:27;;;;;;;6.07;3.67;;;;;;;23.14;nan;100834.94;4993311;28;20162;-75
2022/05/16 09:05:57;;;;;;;6.93;3.55;;;;;;;23.30;nan;100849.66;4988161;28;20049;-76
2022/05/16 09:08:50;;;;;;;8.50;3.28;;;;;;;23.36;nan;100826.94;4973128;28;20497;-74
2022/05/16 09:11:30;;;;;;;7.53;3.10;;;;;;;23.45;nan;100837.78;4984433;28;20038;-75
2022/05/16 09:14:18;;;;;;;10.15;3.15;;;;;;;23.55;nan;100844.84;4988250;28;20113;-74
2022/05/16 09:17:02;;;;;;;10.90;3.75;;;;;;;23.60;nan;100823.22;4983451;28;20038;-75
2022/05/16 09:20:01;;;;;;;5.85;3.40;;;;;;;23.69;nan;100817.94;4991182;28;20043;-74
2022/05/16 09:22:51;;;;;;;12.77;3.72;;;;;;;23.78;nan;100789.28;4980721;28;20060;-75
2022/05/16 09:25:23;;;;;;;5.20;3.13;;;;;;;23.90;nan;100821.78;4977891;28;20034;-75
2022/05/16 09:30:42;;;;;;;10.68;3.63;;;;;;;24.06;nan;100822.22;4988994;28;20413;-75
2022/05/16 09:33:13;;;;;;;8.82;3.45;;;;;;;24.20;nan;100835.63;4966007;28;20034;-74
2022/05/16 09:36:03;;;;;;;8.93;2.80;;;;;;;24.28;nan;100834.91;4986658;28;20042;-73
2022/05/16 09:38:32;;;;;;;9.25;3.67;;;;;;;24.38;nan;100813.09;4975262;28;20121;-75
2022/05/16 09:41:03;;;;;;;7.13;2.78;;;;;;;24.50;nan;100820.66;4982174;28;20069;-74
2022/05/16 09:43:40;;;;;;;4.75;2.70;;;;;;;24.57;nan;100821.00;4987294;28;20042;-73
2022/05/16 09:46:15;;;;;;;7.78;2.90;;;;;;;24.67;nan;100816.47;4973041;28;20030;-74
2022/05/16 09:48:41;;;;;;;4.72;2.47;;;;;;;24.71;nan;100799.38;4992974;28;20054;-69
2022/05/16 09:51:11;;;;;;;6.78;2.80;;;;;;;24.86;nan;100818.94;4965200;28;20458;-71
2022/05/16 09:53:43;;;;;;;5.82;2.63;;;;;;;24.92;nan;100815.75;4983339;28;20043;-70
2022/05/16 09:56:26;;;;;;;4.03;2.10;;;;;;;24.96;nan;100800.56;4971230;28;20097;-70
2022/05/16 09:59:05;;;;;;;4.50;2.70;;;;;;;25.05;nan;100801.41;4974179;28;20154;-70
2022/05/16 10:01:40;;;;;;;12.43;2.70;;;;;;;;;;4979537;28;20383;-71
2022/05/16 10:04:18;;;;;;;5.85;2.72;;;;;;;25.19;nan;100808.63;4991063;28;20031;-71
2022/05/16 10:07:00;;;;;;;4.40;2.30;;;;;;;25.20;nan;100778.63;5003310;28;20033;-69
2022/05/16 10:09:29;;;;;;;6.65;2.38;;;;;;;25.36;nan;100803.25;4975343;28;20038;-66
2022/05/16 10:11:57;;;;;;;3.78;2.40;;;;;;;25.42;nan;100812.75;4968840;28;20046;-70
2022/05/16 10:14:22;;;;;;;8.32;2.85;;;;;;;25.50;nan;100810.38;4986900;28;20115;-71
2022/05/16 10:16:51;;;;;;;6.20;2.40;;;;;;;25.57;nan;100791.84;4980484;28;20499;-70
2022/05/16 10:19:20;;;;;;;6.72;2.63;;;;;;;25.65;nan;100777.56;4985081;28;20042;-75
2022/05/16 10:22:03;;;;;;;7.43;2.63;;;;;;;25.74;nan;100775.69;4986684;28;20046;-75
2022/05/16 10:24:34;;;;;;;7.25;2.72;;;;;;;25.81;nan;100792.19;4990890;28;20370;-75
2022/05/16 10:27:06;;;;;;;4.40;2.45;;;;;;;25.87;nan;100780.13;4987860;28;20054;-75
2022/05/16 10:29:34;;;;;;;6.28;2.40;;;;;;;25.94;nan;100843.63;4990193;28;20500;-74
2022/05/16 10:35:03;;;;;;;5.95;2.38;;;;;;;26.17;nan;100784.84;4994808;28;20038;-76
2022/05/16 10:37:35;;;;;;;4.45;2.20;;;;;;;26.23;nan;100778.97;4995626;28;20034;-72
2022/05/16 10:40:29;;;;;;;7.78;2.20;;;;;;;26.29;nan;100838.97;4991154;28;20042;-70
2022/05/16 10:43:03;;;;;;;6.65;2.10;;;;;;;26.40;nan;100791.63;4976274;28;20100;-71
2022/05/16 10:45:31;;;;;;;6.07;2.10;;;;;;;26.49;nan;100772.69;4994694;28;20034;-71
2022/05/16 10:48:10;;;;;;;4.85;2.20;;;;;;;26.55;nan;100782.22;4983434;28;20047;-71
2022/05/16 10:50:46;;;;;;;4.75;2.13;;;;;;;26.65;nan;100759.47;4993874;28;20515;-72
2022/05/16 10:53:20;;;;;;;4.47;1.83;;;;;;;26.78;nan;100773.88;4990316;28;20062;-75
2022/05/16 10:56:01;;;;;;;4.05;2.25;;;;;;;26.78;nan;100795.50;4994642;28;20038;-76
2022/05/16 10:58:49;;;;;;;5.35;2.25;;;;;;;26.86;nan;100779.22;4976806;28;20088;-75
2022/05/16 11:01:50;;;;;;;5.82;2.20;;;;;;;26.89;nan;100767.00;4979020;28;20563;-75
2022/05/16 11:04:38;;;;;;;3.38;2.05;;;;;;;26.87;nan;100755.72;4982590;28;20041;-76
2022/05/16 11:07:22;;;;;;;6.70;2.58;;;;;;;26.85;nan;100760.66;4991495;28;20031;-75
2022/05/16 11:10:06;;;;;;;5.30;2.30;;;;;;;26.86;nan;100748.72;4998463;28;20040;-73
2022/05/16 11:13:06;;;;;;;5.60;2.67;;;;;;;26.90;nan;100755.84;4993815;28;20038;-74
2022/05/16 11:15:45;;;;;;;4.72;3.00;;;;;;;26.89;nan;100746.16;4931387;29;20157;-74
2022/05/16 11:18:19;;;;;;;3.55;2.47;;;;;;;27.02;nan;100748.97;4929724;29;20561;-75
2022/05/16 11:20:53;;;;;;;5.18;2.30;;;;;;;27.12;nan;100745.88;4929500;29;20043;-75
2022/05/16 11:23:43;;;;;;;6.07;2.53;;;;;;;27.22;nan;100750.91;4932268;29;20043;-74
2022/05/16 11:26:20;;;;;;;8.23;2.47;;;;;;;27.35;nan;100793.13;4932114;29;20092;-74
2022/05/16 11:29:19;;;;;;;3.63;2.30;;;;;;;27.45;nan;100742.47;4928911;29;20118;-74
2022/05/16 11:32:26;;;;;;;5.13;2.60;;;;;;;27.31;nan;100748.94;4937991;29;20039;-73
2022/05/16 11:35:20;;;;;;;5.30;2.25;;;;;;;27.27;nan;100741.81;4938860;29;20094;-74
2022/05/16 11:38:15;;;;;;;4.32;2.30;;;;;;;27.30;nan;100731.16;4929367;29;20039;-74
2022/05/16 11:41:08;;;;;;;4.47;2.35;;;;;;;27.29;nan;100737.66;4917654;29;20043;-73
2022/05/16 11:43:40;;;;;;;5.47;2.17;;;;;;;27.28;nan;100738.00;4933872;29;20051;-74
2022/05/16 11:46:13;;;;;;;7.07;2.28;;;;;;;27.31;nan;100740.81;4928086;29;20047;-73
2022/05/16 11:48:49;;;;;;;5.68;2.22;;;;;;;27.32;nan;100709.16;4929684;29;20071;-71
2022/05/16 11:51:52;;;;;;;5.82;2.53;;;;;;;27.25;nan;100704.31;4966688;28;20486;-71
2022/05/16 11:54:23;;;;;;;3.55;2.25;;;;;;;27.22;nan;100715.75;4986663;28;20038;-71
2022/05/16 12:02:52;;;;;;;4.20;2.40;;;;;;;27.41;nan;100717.22;4987882;28;20424;-71
2022/05/16 12:05:20;;;;;;;8.70;2.42;;;;;;;27.40;nan;100707.53;4992580;28;20089;-71
2022/05/16 12:07:52;;;;;;;4.43;2.30;;;;;;;27.34;nan;100748.31;4991166;28;20432;-71
2022/05/16 12:10:24;;;;;;;5.53;2.50;;;;;;;27.21;nan;100708.00;5001204;28;20033;-71
2022/05/16 12:13:11;;;;;;;4.72;2.67;;;;;;;27.23;nan;100692.25;5006726;28;20026;-70
2022/05/16 12:15:38;;;;;;;4.43;2.38;;;;;;;27.19;nan;100691.28;4988845;28;20429;-70
2022/05/16 12:18:25;;;;;;;5.03;2.30;;;;;;;27.28;nan;100698.22;4985831;28;20125;-71
2022/05/16 12:21:01;;;;;;;7.05;2.70;;;;;;;27.32;nan;100685.63;4972715;28;20045;-70
2022/05/16 12:23:48;;;;;;;5.75;2.53;;;;;;;27.39;nan;100703.22;4990468;28;20104;-73
2022/05/16 12:26:26;;;;;;;6.28;2.58;;;;;;;27.40;nan;100688.59;4978874;28;20050;-73
2022/05/16 12:29:10;;;;;;;5.32;2.22;;;;;;;27.36;nan;100680.34;4972751;28;20026;-73
2022/05/16 12:31:53;;;;;;;6.45;2.47;;;;;;;;;;4973323;28;20049;-74
2022/05/16 12:34:40;;;;;;;6.07;2.30;;;;;;;27.30;nan;100685.16;4989091;28;20034;-74
2022/05/16 12:37:09;;;;;;;4.32;2.90;;;;;;;27.34;nan;100732.06;4983224;28;20043;-74
2022/05/16 12:39:50;;;;;;;6.20;2.85;;;;;;;27.38;nan;100690.84;4980520;28;20485;-74
2022/05/16 12:42:24;;;;;;;2.78;2.25;;;;;;;27.45;nan;100672.94;4971836;28;20031;-75
2022/05/16 12:44:56;;;;;;;4.57;2.63;;;;;;;27.52;nan;100678.59;4989548;28;20665;-74
2022/05/16 12:47:49;;;;;;;8.13;2.42;;;;;;;27.57;nan;100683.81;4990176;28;20038;-74
2022/05/16 12:50:23;;;;;;;7.05;2.78;;;;;;;27.65;nan;100678.66;4976338;28;20035;-75
2022/05/16 12:53:25;;;;;;;10.60;2.70;;;;;;;27.62;nan;100674.69;4979348;28;20042;-74
2022/05/16 12:56:07;;;;;;;6.63;2.53;;;;;;;27.53;nan;100661.25;4986317;28;20164;-73
2022/05/16 12:59:12;;;;;;;4.60;2.40;;;;;;;27.52;nan;100662.38;4989432;28;20034;-75
2022/05/16 13:02:04;;;;;;;4.55;2.40;;;;;;;27.54;nan;100656.66;4961117;28;20026;-74
2022/05/16 13:04:38;;;;;;;5.90;2.40;;;;;;;27.64;nan;100653.50;4978266;28;20424;-74
2022/05/16 13:07:10;;;;;;;8.30;2.75;;;;;;;27.77;nan;100665.16;4981654;28;20354;-74
2022/05/16 13:10:02;;;;;;;5.57;2.55;;;;;;;27.87;nan;100647.72;4975143;28;20034;-73
2022/05/16 13:12:57;;;;;;;5.45;2.67;;;;;;;27.82;nan;100634.38;4984824;28;20125;-74
2022/05/16 13:15:37;;;;;;;4.18;2.42;;;;;;;27.91;nan;100652.13;4976698;28;20050;-74
2022/05/16 13:18:09;;;;;;;7.10;2.83;;;;;;;27.98;nan;100638.03;4984293;28;20041;-74
2022/05/16 13:20:38;;;;;;;10.18;2.30;;;;;;;28.05;nan;100621.25;4990378;28;20214;-75
2022/05/16 13:23:04;;;;;;;7.20;2.58;;;;;;;28.09;nan;100641.13;4985938;28;20848;-75
2022/05/16 13:25:31;;;;;;;9.05;2.85;;;;;;;28.03;nan;100653.28;4989411;28;20133;-74
2022/05/16 13:30:47;;;;;;;4.25;2.40;;;;;;;27.92;nan;100653.72;4994987;28;20043;-74
2022/05/16 13:33:35;;;;;;;3.22;2.30;;;;;;;27.92;nan;100632.06;4987165;28;20030;-74
2022/05/16 13:36:16;;;;;;;5.00;2.38;;;;;;;27.92;nan;100623.16;4988788;28;20042;-74
2022/05/16 13:38:41;;;;;;;6.88;2.50;;;;;;;27.88;nan;100631.16;4987327;28;20046;-73